Česky Dansk Deutsch English Español Suomi Français Magyar Italiano Nederlands norsk Polski Português svenska Türkçe

 

Het Weer

Hua Hin (Thailand)

05:00, 11 augustus 2016 (GMT)

NWNNE
WE
SWSSE
Home            
Hua Hin Phetchaburi Prachuap Khirikhan Chon Buri Mergui Rayong Don Muang Kanchanaburi Prachin Buri Chanthaburi Chumphon Dawei Ranong Nakhon Ratchasima Nakhon Sawan Surat Thani Chaiyaphum Siemreap Nakhon Si Thammarat Phitsanulok Mae Sot Tak Moulmein

Om een weerknop op uw website of weblog te plaatsen, copieer onderstaande code en plak die in uw pagina. In het eerste vakje staat HTML-code, in het tweede vakje UBB-code.


Add to Google

Details

Wind speed:2 bf, 5 kn, 2.6 m/s, 5.8 miles/h, 9.3 km/h
Wind direction:Variable
Visibility:Greater than 10000 m, 10 km, 32800 ft, 6.2 miles
Clouds:Ein wenig bewölkt at 3500 ft, 1067 m
Temperature:36°C, 97°F
Gefühlte Temperatur:41°C, 106°F
Dew-point:22°C, 72°F
Atmospheric pressure:1007 hPa, 755.3 mmHg, 29.74 inHg, 0.994 atm
Relative humidity:44.5 %
METAR:VTPH 110500Z VRB05KT 9999 FEW035 36/22 Q1007

Snelkoppelingen

Actuele weersinformatie van de hele wereld. Voeg locaties toe met het plus (+) symbool. Deze snelkoppelingen kunnen worden toegevoegd aan Google.

Lid van de Technetium groep

website free tracking
StatCounter NetStat W3C Validator

05-08-2020 03:04:11
astro.technetium.be money.technetium.be phote.technetium.be tafeltennistafel.technetium.be www.ligfiets.net